createdAt,value
2023-01-11T00:00:46.092Z,74.89
2023-01-11T00:03:13.257Z,74.13
2023-01-11T00:05:43.612Z,74.11
2023-01-11T00:08:10.795Z,73.04
2023-01-11T00:10:37.830Z,73.20
2023-01-11T00:13:05.176Z,72.26
2023-01-11T00:15:32.138Z,72.36
2023-01-11T00:17:59.056Z,71.48
2023-01-11T00:20:25.941Z,71.99
2023-01-11T00:22:52.757Z,72.01
2023-01-11T00:25:19.633Z,71.45
2023-01-11T00:27:49.440Z,72.10
2023-01-11T00:30:17.886Z,71.58
2023-01-11T00:32:44.839Z,71.11
2023-01-11T00:35:12.035Z,71.67
2023-01-11T00:37:39.225Z,71.50
2023-01-11T00:40:10.128Z,70.52
2023-01-11T00:42:55.129Z,69.43
2023-01-11T00:45:40.476Z,70.24
2023-01-11T00:48:07.941Z,70.58
2023-01-11T00:50:36.600Z,69.99
2023-01-11T00:53:04.193Z,70.93
2023-01-11T00:55:34.098Z,69.82
2023-01-11T00:58:01.348Z,70.09
2023-01-11T01:00:28.860Z,69.99
2023-01-11T01:02:55.752Z,70.64
2023-01-11T01:05:22.621Z,71.27
2023-01-11T01:07:49.534Z,71.02
2023-01-11T01:10:17.576Z,70.55
2023-01-11T01:13:03.273Z,69.32
2023-01-11T01:15:30.607Z,68.79
2023-01-11T01:17:57.483Z,69.15
2023-01-11T01:20:24.823Z,69.00
2023-01-11T01:22:51.657Z,68.88
2023-01-11T01:25:18.713Z,68.78
2023-01-11T01:27:45.489Z,69.41
2023-01-11T01:30:13.183Z,69.21
2023-01-11T01:32:40.036Z,69.35
2023-01-11T01:35:07.162Z,68.40
2023-01-11T01:37:34.049Z,68.26
2023-01-11T01:40:01.104Z,68.53
2023-01-11T01:42:28.050Z,67.43
2023-01-11T01:45:27.804Z,67.02
2023-01-11T01:48:04.053Z,66.56
2023-01-11T01:50:41.655Z,66.65
2023-01-11T01:53:12.712Z,66.83
2023-01-11T01:55:42.519Z,67.28
2023-01-11T01:58:15.978Z,67.44
2023-01-11T02:00:44.435Z,67.57
2023-01-11T02:03:16.300Z,68.06
2023-01-11T02:05:43.371Z,67.32
2023-01-11T02:08:14.277Z,67.11
2023-01-11T02:10:40.943Z,66.22
2023-01-11T02:13:10.290Z,66.22
2023-01-11T02:15:38.717Z,66.38
2023-01-11T02:18:05.888Z,66.15
2023-01-11T02:20:42.108Z,66.05
2023-01-11T02:23:37.622Z,65.74
2023-01-11T02:26:23.019Z,66.65
2023-01-11T02:29:17.689Z,66.22
2023-01-11T02:31:48.304Z,66.74
2023-01-11T02:34:45.616Z,68.07
2023-01-11T02:37:25.604Z,69.47
2023-01-11T02:40:20.680Z,70.24
2023-01-11T02:43:12.368Z,71.18
2023-01-11T02:45:59.467Z,71.45
2023-01-11T02:48:33.246Z,71.52
2023-01-11T02:51:32.763Z,71.78
2023-01-11T02:54:03.752Z,72.23
2023-01-11T02:56:31.285Z,72.33
2023-01-11T02:58:58.720Z,72.76
2023-01-11T03:01:25.748Z,73.17
2023-01-11T03:03:56.283Z,73.19
2023-01-11T03:06:27.156Z,72.91
2023-01-11T03:09:12.391Z,72.65
2023-01-11T03:12:10.669Z,72.71
2023-01-11T03:15:04.961Z,72.50
2023-01-11T03:17:36.042Z,72.25
2023-01-11T03:20:15.470Z,72.03
2023-01-11T03:23:20.555Z,72.16
2023-01-11T03:26:15.087Z,72.67
2023-01-11T03:28:59.671Z,72.38
2023-01-11T03:32:05.256Z,72.50
2023-01-11T03:35:12.357Z,72.74
2023-01-11T03:37:44.993Z,72.20
2023-01-11T03:40:25.778Z,72.28
2023-01-11T03:43:12.209Z,72.29
2023-01-11T03:45:48.121Z,71.88
2023-01-11T03:48:18.799Z,71.85
2023-01-11T03:50:46.310Z,72.49
2023-01-11T03:53:13.866Z,74.70
2023-01-11T03:55:42.525Z,75.87
2023-01-11T03:58:09.757Z,76.58
2023-01-11T04:00:37.093Z,77.23
2023-01-11T04:03:04.021Z,77.42
2023-01-11T04:05:30.853Z,77.76
2023-01-11T04:07:57.657Z,78.20
2023-01-11T04:10:24.459Z,78.70
2023-01-11T04:12:51.408Z,78.80
2023-01-11T04:15:18.243Z,78.32
2023-01-11T04:17:45.043Z,78.27
2023-01-11T04:20:12.892Z,78.41
2023-01-11T04:22:39.710Z,78.91
2023-01-11T04:25:08.894Z,78.96
2023-01-11T04:27:35.739Z,78.87
2023-01-11T04:30:03.379Z,78.89
2023-01-11T04:32:30.173Z,79.08
2023-01-11T04:34:56.892Z,78.78
2023-01-11T04:37:23.657Z,78.91
2023-01-11T04:39:50.551Z,79.10
2023-01-11T04:42:20.146Z,79.34
2023-01-11T04:44:49.019Z,79.13
2023-01-11T04:47:17.016Z,79.81
2023-01-11T04:49:44.752Z,79.79
2023-01-11T04:52:12.731Z,79.84
2023-01-11T04:54:39.848Z,80.09
2023-01-11T04:57:07.679Z,79.95
2023-01-11T04:59:34.538Z,80.29
2023-01-11T05:02:01.261Z,80.38
2023-01-11T05:04:28.294Z,80.68
2023-01-11T05:06:55.183Z,80.70
2023-01-11T05:09:22.192Z,81.33
2023-01-11T05:11:49.116Z,81.45
2023-01-11T05:14:16.859Z,81.90
2023-01-11T05:16:43.963Z,82.31
2023-01-11T05:19:11.844Z,82.20
2023-01-11T05:21:40.420Z,82.67
2023-01-11T05:24:11.002Z,83.13
2023-01-11T05:26:39.420Z,83.26
2023-01-11T05:29:08.582Z,83.19
2023-01-11T05:31:37.065Z,83.10
2023-01-11T05:34:04.235Z,83.19
2023-01-11T05:36:31.060Z,83.37
2023-01-11T05:38:57.903Z,82.86
2023-01-11T05:41:26.249Z,81.99
2023-01-11T05:44:12.592Z,81.57
2023-01-11T05:46:41.006Z,80.88
2023-01-11T05:49:08.748Z,80.92
2023-01-11T05:51:36.072Z,81.01
2023-01-11T05:54:05.032Z,80.30
2023-01-11T05:56:32.176Z,80.40
2023-01-11T05:58:59.021Z,80.13
2023-01-11T06:01:26.374Z,80.03
2023-01-11T06:03:53.232Z,79.85
2023-01-11T06:06:20.726Z,79.51
2023-01-11T06:08:47.728Z,79.76
2023-01-11T06:11:15.301Z,79.30
2023-01-11T06:13:42.500Z,79.46
2023-01-11T06:16:14.718Z,79.51
2023-01-11T06:18:44.000Z,79.26
2023-01-11T06:21:11.398Z,79.38
2023-01-11T06:23:40.708Z,79.66
2023-01-11T06:26:09.832Z,79.96
2023-01-11T06:28:37.562Z,80.59
2023-01-11T06:31:05.193Z,80.72
2023-01-11T06:33:32.772Z,81.00
2023-01-11T06:35:59.774Z,81.40
2023-01-11T06:38:26.745Z,82.12
2023-01-11T06:40:55.892Z,81.60
2023-01-11T06:43:23.847Z,81.76
2023-01-11T06:45:51.005Z,81.93
2023-01-11T06:48:19.269Z,82.19
2023-01-11T06:50:50.773Z,82.05
2023-01-11T06:53:17.985Z,82.39
2023-01-11T06:55:44.962Z,82.15
2023-01-11T06:58:11.873Z,82.11
2023-01-11T07:00:38.894Z,81.96
2023-01-11T07:03:06.362Z,81.85
2023-01-11T07:05:34.269Z,81.86
2023-01-11T07:08:01.378Z,82.38
2023-01-11T07:10:28.299Z,81.82
2023-01-11T07:12:55.197Z,82.27
2023-01-11T07:15:22.630Z,82.14
2023-01-11T07:17:54.551Z,82.90
2023-01-11T07:20:22.506Z,82.76
2023-01-11T07:22:49.628Z,83.02
2023-01-11T07:25:16.876Z,83.26
2023-01-11T07:27:43.703Z,83.32
2023-01-11T07:30:11.150Z,83.25
2023-01-11T07:32:37.911Z,82.77
2023-01-11T07:35:05.060Z,82.94
2023-01-11T07:37:35.277Z,82.94
2023-01-11T07:40:02.156Z,82.54
2023-01-11T07:42:47.245Z,82.49
2023-01-11T07:45:14.143Z,82.40
2023-01-11T07:47:40.946Z,82.25
2023-01-11T07:50:08.465Z,82.35
2023-01-11T07:52:35.247Z,82.18
2023-01-11T07:55:02.883Z,82.33
2023-01-11T07:57:30.690Z,82.12
2023-01-11T07:59:57.707Z,81.69
2023-01-11T08:02:24.593Z,81.74
2023-01-11T08:04:51.546Z,81.40
2023-01-11T08:07:18.357Z,81.07
2023-01-11T08:09:45.299Z,81.63
2023-01-11T08:12:30.829Z,81.36
2023-01-11T08:14:57.780Z,81.41
2023-01-11T08:17:24.662Z,80.90
2023-01-11T08:19:51.643Z,81.21
2023-01-11T08:22:18.496Z,81.00
2023-01-11T08:24:45.384Z,80.81
2023-01-11T08:27:12.294Z,80.54
2023-01-11T08:29:40.107Z,80.58
2023-01-11T08:32:06.966Z,80.09
2023-01-11T08:34:34.909Z,80.26
2023-01-11T08:37:02.224Z,80.17
2023-01-11T08:39:32.103Z,80.68
2023-01-11T08:41:59.935Z,80.82
2023-01-11T08:44:34.114Z,80.95
2023-01-11T08:47:02.563Z,80.69
2023-01-11T08:49:30.586Z,80.93
2023-01-11T08:51:57.564Z,80.77
2023-01-11T08:54:25.124Z,80.70
2023-01-11T08:56:52.098Z,80.79
2023-01-11T08:59:20.164Z,80.49
2023-01-11T09:01:47.545Z,80.71
2023-01-11T09:04:24.161Z,80.88
2023-01-11T09:06:52.912Z,80.83
2023-01-11T09:09:19.878Z,80.87
2023-01-11T09:11:56.856Z,80.53
2023-01-11T09:14:26.000Z,80.50
2023-01-11T09:16:53.804Z,80.27
2023-01-11T09:19:21.173Z,80.37
2023-01-11T09:21:48.475Z,80.09
2023-01-11T09:24:15.549Z,80.14
2023-01-11T09:26:43.685Z,80.93
2023-01-11T09:29:11.551Z,80.43
2023-01-11T09:31:38.548Z,80.11
2023-01-11T09:34:07.237Z,80.14
2023-01-11T09:36:36.165Z,80.08
2023-01-11T09:39:08.430Z,79.61
2023-01-11T09:41:45.155Z,79.47
2023-01-11T09:44:23.171Z,79.53
2023-01-11T09:46:56.135Z,79.55
2023-01-11T09:49:28.159Z,79.53
2023-01-11T09:52:05.576Z,79.74
2023-01-11T09:54:32.634Z,79.85
2023-01-11T09:57:23.834Z,79.90
2023-01-11T09:59:58.393Z,80.17
2023-01-11T10:02:43.952Z,79.81
2023-01-11T10:05:31.067Z,79.65
2023-01-11T10:18:23.369Z,79.42
2023-01-11T10:18:32.896Z,78.86
2023-01-11T10:20:15.695Z,78.50
2023-01-11T10:22:47.073Z,78.24
2023-01-11T10:25:21.769Z,78.64
2023-01-11T10:28:01.713Z,78.06
2023-01-11T10:31:01.403Z,77.93
2023-01-11T10:33:50.540Z,77.63
2023-01-11T10:36:31.512Z,77.51
2023-01-11T10:39:17.586Z,77.04
2023-01-11T10:41:57.322Z,76.85
2023-01-11T10:44:38.140Z,76.50
2023-01-11T10:47:10.967Z,76.69
2023-01-11T10:50:00.150Z,76.03
2023-01-11T10:52:30.805Z,75.96
2023-01-11T10:54:58.957Z,75.56
2023-01-11T10:57:28.603Z,75.19
2023-01-11T11:00:02.691Z,75.82
2023-01-11T11:02:40.650Z,75.80
2023-01-11T11:05:19.718Z,75.94
2023-01-11T11:08:14.940Z,75.35
2023-01-11T11:11:08.635Z,76.02
2023-01-11T11:13:52.084Z,76.31
2023-01-11T11:16:22.045Z,75.70
2023-01-11T11:18:52.751Z,75.87
2023-01-11T11:21:23.376Z,75.31
2023-01-11T11:24:02.174Z,75.57
2023-01-11T11:26:38.296Z,75.08
2023-01-11T11:29:08.262Z,74.71
2023-01-11T11:31:37.342Z,74.80
2023-01-11T11:34:07.030Z,74.77
2023-01-11T11:36:48.904Z,74.77
2023-01-11T11:39:31.229Z,74.31
2023-01-11T11:42:06.683Z,74.18
2023-01-11T11:44:33.543Z,74.04
2023-01-11T11:47:06.147Z,73.90
2023-01-11T11:49:34.777Z,73.82
2023-01-11T11:52:03.470Z,73.65
2023-01-11T11:54:34.606Z,73.46
2023-01-11T11:57:14.984Z,73.78
2023-01-11T11:59:45.897Z,73.76
2023-01-11T12:02:39.237Z,72.83
2023-01-11T12:05:09.192Z,73.09
2023-01-11T12:07:49.778Z,72.60
2023-01-11T12:10:25.328Z,72.55
2023-01-11T12:13:00.410Z,72.98
2023-01-11T12:15:31.924Z,72.49
2023-01-11T12:18:18.836Z,72.47
2023-01-11T12:20:47.301Z,73.42
2023-01-11T12:23:14.161Z,72.77
2023-01-11T12:25:57.756Z,72.57
2023-01-11T12:28:33.674Z,72.48
2023-01-11T12:31:29.701Z,72.02
2023-01-11T12:34:23.316Z,71.89
2023-01-11T12:37:02.689Z,71.47
2023-01-11T12:39:44.509Z,70.95
2023-01-11T12:42:42.615Z,67.91
2023-01-11T12:45:27.640Z,66.64
2023-01-11T12:48:51.709Z,63.67
2023-01-11T12:51:32.070Z,62.54
2023-01-11T12:54:01.514Z,60.30
2023-01-11T12:57:05.524Z,59.64
2023-01-11T12:59:40.471Z,60.65
2023-01-11T13:02:07.243Z,61.50
2023-01-11T13:04:45.916Z,60.55
2023-01-11T13:07:22.147Z,60.54
2023-01-11T13:09:54.972Z,60.53
2023-01-11T13:12:27.227Z,60.10
2023-01-11T13:14:56.767Z,59.75
2023-01-11T13:17:44.052Z,60.59
2023-01-11T13:20:48.698Z,59.32
2023-01-11T13:23:26.677Z,58.50
2023-01-11T13:25:54.319Z,58.21
2023-01-11T13:28:29.231Z,59.05
2023-01-11T13:30:57.049Z,58.20
2023-01-11T13:33:25.032Z,58.07
2023-01-11T13:35:58.259Z,59.00
2023-01-11T13:38:34.678Z,58.46
2023-01-11T13:41:29.047Z,58.18
2023-01-11T13:44:06.739Z,58.80
2023-01-11T13:46:47.588Z,57.25
2023-01-11T13:49:32.735Z,56.87
2023-01-11T13:52:03.979Z,56.31
2023-01-11T13:54:51.009Z,56.73
2023-01-11T13:57:56.441Z,56.71
2023-01-11T14:00:42.273Z,57.78
2023-01-11T14:03:23.653Z,58.01
2023-01-11T14:06:02.014Z,60.13
2023-01-11T14:08:47.317Z,64.29
2023-01-11T14:11:19.621Z,65.82
2023-01-11T14:14:13.548Z,67.01
2023-01-11T14:16:40.256Z,67.94
2023-01-11T14:19:17.077Z,69.17
2023-01-11T14:22:13.416Z,69.40
2023-01-11T14:24:51.119Z,69.62
2023-01-11T14:27:37.900Z,69.82
2023-01-11T14:30:29.684Z,70.23
2023-01-11T14:33:18.456Z,70.28
2023-01-11T14:36:07.264Z,70.16
2023-01-11T14:38:39.986Z,70.56
2023-01-11T14:41:31.435Z,71.24
2023-01-11T14:44:05.356Z,71.10
2023-01-11T14:46:54.931Z,70.95
2023-01-11T14:49:39.134Z,71.17
2023-01-11T14:52:11.775Z,70.78
2023-01-11T14:54:41.509Z,70.12
2023-01-11T14:57:30.637Z,70.42
2023-01-11T14:59:57.600Z,70.47
2023-01-11T15:02:27.124Z,69.62
2023-01-11T15:04:55.048Z,69.80
2023-01-11T15:07:29.384Z,69.48
2023-01-11T15:10:20.379Z,69.65
2023-01-11T15:12:48.314Z,69.46
2023-01-11T15:15:19.251Z,69.28
2023-01-11T15:18:04.438Z,69.38
2023-01-11T15:20:33.781Z,69.57
2023-01-11T15:23:02.890Z,69.27
2023-01-11T15:25:34.219Z,69.63
2023-01-11T15:28:04.438Z,70.50
2023-01-11T15:30:31.246Z,70.75
2023-01-11T15:33:25.583Z,71.21
2023-01-11T15:35:55.173Z,71.65
2023-01-11T15:38:27.369Z,71.30
2023-01-11T15:40:56.949Z,72.78
2023-01-11T15:43:45.215Z,72.58
2023-01-11T15:46:42.913Z,72.37
2023-01-11T15:49:24.986Z,73.49
2023-01-11T15:52:19.230Z,73.43
2023-01-11T15:55:04.791Z,74.91
2023-01-11T15:58:05.230Z,74.16
2023-01-11T16:00:50.416Z,74.76
2023-01-11T16:03:42.187Z,76.68
2023-01-11T16:06:37.847Z,75.04
2023-01-11T16:09:22.861Z,75.26
2023-01-11T16:12:17.344Z,76.97
2023-01-11T16:15:09.113Z,77.51
2023-01-11T16:17:40.632Z,77.97
2023-01-11T16:20:19.736Z,77.35
2023-01-11T16:23:04.813Z,78.41
2023-01-11T16:25:35.059Z,78.37
2023-01-11T16:28:02.618Z,78.35
2023-01-11T16:30:29.773Z,78.94
2023-01-11T16:33:16.173Z,78.66
2023-01-11T16:35:43.126Z,78.81
2023-01-11T16:38:18.396Z,79.28
2023-01-11T16:40:51.609Z,78.84
2023-01-11T16:43:30.682Z,79.00
2023-01-11T16:45:57.603Z,79.40
2023-01-11T16:48:29.636Z,79.15
2023-01-11T16:51:03.193Z,80.07
2023-01-11T16:53:34.745Z,79.67
2023-01-11T16:56:20.587Z,79.80
2023-01-11T16:59:06.128Z,79.75
2023-01-11T17:01:56.395Z,80.24
2023-01-11T17:04:33.444Z,80.32
2023-01-11T17:07:24.287Z,80.69
2023-01-11T17:09:51.452Z,80.90
2023-01-11T17:12:21.413Z,81.22
2023-01-11T17:15:02.399Z,80.86
2023-01-11T17:17:35.253Z,79.82
2023-01-11T17:20:02.397Z,78.87
2023-01-11T17:22:34.223Z,79.93
2023-01-11T17:25:05.144Z,79.58
2023-01-11T17:27:36.078Z,79.82
2023-01-11T17:30:05.242Z,79.98
2023-01-11T17:32:47.908Z,80.28
2023-01-11T17:35:20.655Z,80.21
2023-01-11T17:37:49.431Z,79.88
2023-01-11T17:40:31.597Z,79.50
2023-01-11T17:43:39.711Z,78.94
2023-01-11T17:46:07.809Z,78.69
2023-01-11T17:48:35.252Z,78.16
2023-01-11T17:51:03.740Z,77.70
2023-01-11T17:53:32.908Z,78.09
2023-01-11T17:56:01.849Z,77.17
2023-01-11T17:58:36.594Z,77.54
2023-01-11T18:01:15.250Z,77.88
2023-01-11T18:04:12.616Z,77.74
2023-01-11T18:06:45.101Z,78.76
2023-01-11T18:09:29.056Z,78.33
2023-01-11T18:12:09.412Z,78.55
2023-01-11T18:14:56.349Z,79.26
2023-01-11T18:17:32.483Z,80.36
2023-01-11T18:20:00.259Z,80.50
2023-01-11T18:22:42.789Z,79.92
2023-01-11T18:25:29.993Z,80.89
2023-01-11T18:28:26.096Z,79.24
2023-01-11T18:30:54.437Z,79.00
2023-01-11T18:33:23.968Z,81.76
2023-01-11T18:35:53.114Z,82.45
2023-01-11T18:38:26.012Z,82.62
2023-01-11T18:40:53.956Z,82.33
2023-01-11T18:43:26.953Z,82.06
2023-01-11T18:45:54.164Z,82.16
2023-01-11T18:48:21.316Z,81.56
2023-01-11T18:50:49.310Z,81.10
2023-01-11T18:53:16.815Z,80.66
2023-01-11T18:55:44.728Z,80.10
2023-01-11T18:58:11.571Z,79.76
2023-01-11T19:00:38.436Z,80.11
2023-01-11T19:03:05.671Z,80.10
2023-01-11T19:05:32.547Z,79.36
2023-01-11T19:07:59.597Z,79.23
2023-01-11T19:10:27.516Z,78.90
2023-01-11T19:12:54.504Z,78.89
2023-01-11T19:15:21.319Z,79.28
2023-01-11T19:17:48.284Z,79.04
2023-01-11T19:20:15.290Z,79.44
2023-01-11T19:22:42.366Z,79.34
2023-01-11T19:25:10.829Z,79.47
2023-01-11T19:27:38.890Z,79.56
2023-01-11T19:30:06.902Z,79.75
2023-01-11T19:32:33.940Z,79.83
2023-01-11T19:35:01.622Z,79.64
2023-01-11T19:37:30.381Z,80.09
2023-01-11T19:39:57.360Z,80.50
2023-01-11T19:42:24.523Z,80.65
2023-01-11T19:44:52.492Z,80.81
2023-01-11T19:47:19.587Z,81.34
2023-01-11T19:49:46.511Z,80.92
2023-01-11T19:52:18.980Z,82.32
2023-01-11T19:54:47.138Z,82.32
2023-01-11T19:57:18.037Z,82.82
2023-01-11T19:59:45.270Z,82.98
2023-01-11T20:02:13.313Z,82.75
2023-01-11T20:04:41.009Z,83.75
2023-01-11T20:07:08.742Z,83.02
2023-01-11T20:09:37.824Z,83.06
2023-01-11T20:12:09.089Z,83.24
2023-01-11T20:14:36.541Z,83.89
2023-01-11T20:17:03.617Z,83.33
2023-01-11T20:19:30.616Z,83.06
2023-01-11T20:21:57.405Z,82.88
2023-01-11T20:24:28.459Z,82.55
2023-01-11T20:26:59.571Z,83.05
2023-01-11T20:29:26.440Z,82.73
2023-01-11T20:31:53.368Z,82.70
2023-01-11T20:34:20.789Z,82.55
2023-01-11T20:36:48.948Z,82.38
2023-01-11T20:39:17.511Z,82.22
2023-01-11T20:41:47.245Z,82.97
2023-01-11T20:44:25.163Z,82.84
2023-01-11T20:46:52.951Z,82.80
2023-01-11T20:49:22.644Z,83.03
2023-01-11T20:51:49.987Z,82.96
2023-01-11T20:54:16.960Z,83.50
2023-01-11T20:56:46.720Z,83.30
2023-01-11T20:59:17.456Z,83.10
2023-01-11T21:01:44.380Z,83.49
2023-01-11T21:04:11.991Z,83.61
2023-01-11T21:06:43.038Z,83.61
2023-01-11T21:09:10.659Z,83.24
2023-01-11T21:14:05.052Z,83.02
2023-01-11T21:16:32.353Z,83.51
2023-01-11T21:19:05.195Z,83.72
2023-01-11T21:21:33.773Z,84.26
2023-01-11T21:24:03.474Z,83.44
2023-01-11T21:26:31.054Z,84.07
2023-01-11T21:29:00.020Z,83.74
2023-01-11T21:31:36.795Z,84.29
2023-01-11T21:34:04.097Z,84.97
2023-01-11T21:36:31.841Z,85.01
2023-01-11T21:38:59.578Z,83.74
2023-01-11T21:41:46.897Z,84.26
2023-01-11T21:44:14.515Z,84.15
2023-01-11T21:46:42.153Z,83.33
2023-01-11T21:49:10.785Z,84.49
2023-01-11T21:51:38.196Z,84.46
2023-01-11T21:54:07.486Z,84.53
2023-01-11T21:56:34.633Z,84.25
2023-01-11T21:59:01.680Z,84.36
2023-01-11T22:01:28.509Z,84.66
2023-01-11T22:03:55.846Z,85.39
2023-01-11T22:06:23.115Z,84.93
2023-01-11T22:08:50.092Z,85.75
2023-01-11T22:11:17.731Z,85.30
2023-01-11T22:13:44.817Z,84.46
2023-01-11T22:16:16.284Z,84.60
2023-01-11T22:18:44.128Z,84.27
2023-01-11T22:21:17.251Z,85.13
2023-01-11T22:23:45.557Z,85.01
2023-01-11T22:26:17.110Z,86.19
2023-01-11T22:29:04.010Z,85.16
2023-01-11T22:31:32.385Z,86.15
2023-01-11T22:34:00.065Z,86.12
2023-01-11T22:36:28.020Z,86.27
2023-01-11T22:38:54.851Z,86.45
2023-01-11T22:41:22.561Z,86.12
2023-01-11T22:43:49.729Z,86.74
2023-01-11T22:46:19.202Z,86.58
2023-01-11T22:48:49.528Z,86.25
2023-01-11T22:51:18.423Z,85.63
2023-01-11T22:53:47.315Z,86.12
2023-01-11T22:56:15.919Z,86.22
2023-01-11T22:58:42.693Z,85.69
2023-01-11T23:01:31.443Z,85.00
2023-01-11T23:03:59.200Z,85.51
2023-01-11T23:06:28.556Z,85.22
2023-01-11T23:08:55.812Z,85.31
2023-01-11T23:11:48.185Z,85.07
2023-01-11T23:14:17.703Z,84.95
2023-01-11T23:16:45.852Z,84.37
2023-01-11T23:19:14.597Z,84.20
2023-01-11T23:21:43.216Z,84.13
2023-01-11T23:24:11.381Z,84.13
2023-01-11T23:26:38.489Z,84.56
2023-01-11T23:29:06.691Z,84.50
2023-01-11T23:31:34.056Z,84.83
2023-01-11T23:34:01.894Z,84.43
2023-01-11T23:36:34.839Z,84.36
2023-01-11T23:39:01.859Z,84.03
2023-01-11T23:42:00.970Z,83.99
2023-01-11T23:44:28.052Z,83.81
2023-01-11T23:47:13.758Z,84.29
2023-01-11T23:49:40.844Z,84.12
2023-01-11T23:52:07.720Z,83.77
2023-01-11T23:54:34.833Z,83.28
2023-01-11T23:57:02.829Z,83.29
2023-01-11T23:59:29.920Z,83.18
